sensor_id;sensor_type;location;lat;lon;timestamp;P1;durP1;ratioP1;P2;durP2;ratioP2
52025;SDS011;38041;40.058;18.328;2022-08-19T00:00:40;20.23;;;7.10;;
52025;SDS011;38041;40.058;18.328;2022-08-19T00:03:07;21.60;;;7.65;;
52025;SDS011;38041;40.058;18.328;2022-08-19T00:05:35;18.63;;;6.07;;
52025;SDS011;38041;40.058;18.328;2022-08-19T00:08:03;15.45;;;6.90;;
52025;SDS011;38041;40.058;18.328;2022-08-19T00:10:31;16.42;;;8.27;;
52025;SDS011;38041;40.058;18.328;2022-08-19T00:13:00;20.92;;;8.88;;
52025;SDS011;38041;40.058;18.328;2022-08-19T00:15:28;22.83;;;8.93;;
52025;SDS011;38041;40.058;18.328;2022-08-19T00:17:55;25.23;;;8.77;;
52025;SDS011;38041;40.058;18.328;2022-08-19T00:20:23;22.75;;;8.15;;
52025;SDS011;38041;40.058;18.328;2022-08-19T00:22:51;25.88;;;8.30;;
52025;SDS011;38041;40.058;18.328;2022-08-19T00:25:19;17.77;;;6.70;;
52025;SDS011;38041;40.058;18.328;2022-08-19T00:27:46;20.85;;;6.60;;
52025;SDS011;38041;40.058;18.328;2022-08-19T00:30:14;21.02;;;6.95;;
52025;SDS011;38041;40.058;18.328;2022-08-19T00:32:42;17.45;;;6.03;;
52025;SDS011;38041;40.058;18.328;2022-08-19T00:35:10;23.48;;;5.53;;
52025;SDS011;38041;40.058;18.328;2022-08-19T00:37:37;16.98;;;4.40;;
52025;SDS011;38041;40.058;18.328;2022-08-19T00:40:11;14.13;;;4.68;;
52025;SDS011;38041;40.058;18.328;2022-08-19T00:42:39;13.55;;;4.05;;
52025;SDS011;38041;40.058;18.328;2022-08-19T00:45:14;19.63;;;5.35;;
52025;SDS011;38041;40.058;18.328;2022-08-19T00:47:44;24.33;;;6.10;;
52025;SDS011;38041;40.058;18.328;2022-08-19T00:50:12;21.35;;;7.05;;
52025;SDS011;38041;40.058;18.328;2022-08-19T00:52:42;20.73;;;6.05;;
52025;SDS011;38041;40.058;18.328;2022-08-19T00:55:16;17.35;;;5.18;;
52025;SDS011;38041;40.058;18.328;2022-08-19T00:57:49;27.70;;;5.15;;
52025;SDS011;38041;40.058;18.328;2022-08-19T01:00:19;22.40;;;5.75;;
52025;SDS011;38041;40.058;18.328;2022-08-19T01:02:47;12.70;;;5.30;;
52025;SDS011;38041;40.058;18.328;2022-08-19T01:05:19;20.45;;;5.97;;
52025;SDS011;38041;40.058;18.328;2022-08-19T01:07:48;10.80;;;4.78;;
52025;SDS011;38041;40.058;18.328;2022-08-19T01:10:18;11.48;;;5.15;;
52025;SDS011;38041;40.058;18.328;2022-08-19T01:12:47;19.27;;;5.82;;
52025;SDS011;38041;40.058;18.328;2022-08-19T01:15:16;13.63;;;5.30;;
52025;SDS011;38041;40.058;18.328;2022-08-19T01:17:45;19.08;;;5.00;;
52025;SDS011;38041;40.058;18.328;2022-08-19T01:20:14;14.82;;;5.30;;
52025;SDS011;38041;40.058;18.328;2022-08-19T01:25:10;9.38;;;4.35;;
52025;SDS011;38041;40.058;18.328;2022-08-19T01:27:40;22.48;;;6.85;;
52025;SDS011;38041;40.058;18.328;2022-08-19T01:30:10;13.35;;;5.47;;
52025;SDS011;38041;40.058;18.328;2022-08-19T01:32:38;13.38;;;5.32;;
52025;SDS011;38041;40.058;18.328;2022-08-19T01:35:06;19.35;;;5.90;;
52025;SDS011;38041;40.058;18.328;2022-08-19T01:40:11;11.50;;;4.38;;
52025;SDS011;38041;40.058;18.328;2022-08-19T01:42:38;20.33;;;5.90;;
52025;SDS011;38041;40.058;18.328;2022-08-19T01:45:07;18.73;;;4.32;;
52025;SDS011;38041;40.058;18.328;2022-08-19T01:47:35;10.05;;;4.68;;
52025;SDS011;38041;40.058;18.328;2022-08-19T01:50:04;14.13;;;3.88;;
52025;SDS011;38041;40.058;18.328;2022-08-19T01:52:35;16.23;;;5.45;;
52025;SDS011;38041;40.058;18.328;2022-08-19T01:55:03;14.32;;;3.85;;
52025;SDS011;38041;40.058;18.328;2022-08-19T01:57:31;11.07;;;5.10;;
52025;SDS011;38041;40.058;18.328;2022-08-19T01:59:59;17.23;;;5.93;;
52025;SDS011;38041;40.058;18.328;2022-08-19T02:02:37;14.85;;;4.22;;
52025;SDS011;38041;40.058;18.328;2022-08-19T02:05:04;21.17;;;4.85;;
52025;SDS011;38041;40.058;18.328;2022-08-19T02:07:34;18.25;;;4.38;;
52025;SDS011;38041;40.058;18.328;2022-08-19T02:10:03;10.88;;;3.92;;
52025;SDS011;38041;40.058;18.328;2022-08-19T02:12:31;17.98;;;4.72;;
52025;SDS011;38041;40.058;18.328;2022-08-19T02:14:59;17.33;;;4.40;;
52025;SDS011;38041;40.058;18.328;2022-08-19T02:17:28;13.75;;;4.18;;
52025;SDS011;38041;40.058;18.328;2022-08-19T02:19:56;16.88;;;4.65;;
52025;SDS011;38041;40.058;18.328;2022-08-19T02:22:24;15.75;;;5.53;;
52025;SDS011;38041;40.058;18.328;2022-08-19T02:24:52;13.35;;;4.40;;
52025;SDS011;38041;40.058;18.328;2022-08-19T02:27:21;13.27;;;3.97;;
52025;SDS011;38041;40.058;18.328;2022-08-19T02:29:49;15.52;;;4.85;;
52025;SDS011;38041;40.058;18.328;2022-08-19T02:32:17;16.13;;;4.28;;
52025;SDS011;38041;40.058;18.328;2022-08-19T02:34:48;15.57;;;3.25;;
52025;SDS011;38041;40.058;18.328;2022-08-19T02:37:15;15.55;;;3.53;;
52025;SDS011;38041;40.058;18.328;2022-08-19T02:40:02;12.80;;;3.08;;
52025;SDS011;38041;40.058;18.328;2022-08-19T02:42:30;16.17;;;4.68;;
52025;SDS011;38041;40.058;18.328;2022-08-19T02:44:58;13.45;;;4.20;;
52025;SDS011;38041;40.058;18.328;2022-08-19T02:47:26;10.82;;;4.25;;
52025;SDS011;38041;40.058;18.328;2022-08-19T02:49:54;15.60;;;4.75;;
52025;SDS011;38041;40.058;18.328;2022-08-19T02:52:22;13.23;;;5.22;;
52025;SDS011;38041;40.058;18.328;2022-08-19T02:54:49;12.27;;;4.22;;
52025;SDS011;38041;40.058;18.328;2022-08-19T02:57:17;24.45;;;4.88;;
52025;SDS011;38041;40.058;18.328;2022-08-19T02:59:45;16.98;;;3.83;;
52025;SDS011;38041;40.058;18.328;2022-08-19T03:02:12;17.27;;;4.38;;
52025;SDS011;38041;40.058;18.328;2022-08-19T03:04:40;13.20;;;3.60;;
52025;SDS011;38041;40.058;18.328;2022-08-19T03:07:09;15.30;;;4.53;;
52025;SDS011;38041;40.058;18.328;2022-08-19T03:09:37;17.58;;;4.45;;
52025;SDS011;38041;40.058;18.328;2022-08-19T03:12:05;17.95;;;5.15;;
52025;SDS011;38041;40.058;18.328;2022-08-19T03:14:33;21.85;;;4.65;;
52025;SDS011;38041;40.058;18.328;2022-08-19T03:17:00;23.92;;;4.03;;
52025;SDS011;38041;40.058;18.328;2022-08-19T03:19:29;11.57;;;4.22;;
52025;SDS011;38041;40.058;18.328;2022-08-19T03:21:58;18.30;;;4.28;;
52025;SDS011;38041;40.058;18.328;2022-08-19T03:24:25;16.83;;;5.07;;
52025;SDS011;38041;40.058;18.328;2022-08-19T03:26:54;18.30;;;4.47;;
52025;SDS011;38041;40.058;18.328;2022-08-19T03:29:26;10.80;;;3.72;;
52025;SDS011;38041;40.058;18.328;2022-08-19T03:31:54;15.27;;;5.07;;
52025;SDS011;38041;40.058;18.328;2022-08-19T03:34:23;13.52;;;3.95;;
52025;SDS011;38041;40.058;18.328;2022-08-19T03:36:55;18.95;;;5.20;;
52025;SDS011;38041;40.058;18.328;2022-08-19T03:39:23;14.10;;;3.67;;
52025;SDS011;38041;40.058;18.328;2022-08-19T03:41:51;18.23;;;3.47;;
52025;SDS011;38041;40.058;18.328;2022-08-19T03:44:20;12.73;;;2.95;;
52025;SDS011;38041;40.058;18.328;2022-08-19T03:46:50;11.88;;;3.17;;
52025;SDS011;38041;40.058;18.328;2022-08-19T03:49:18;22.60;;;2.55;;
52025;SDS011;38041;40.058;18.328;2022-08-19T03:51:48;11.15;;;2.67;;
52025;SDS011;38041;40.058;18.328;2022-08-19T03:54:19;18.60;;;2.60;;
52025;SDS011;38041;40.058;18.328;2022-08-19T03:56:48;22.98;;;2.63;;
52025;SDS011;38041;40.058;18.328;2022-08-19T03:59:19;15.13;;;3.05;;
52025;SDS011;38041;40.058;18.328;2022-08-19T04:01:47;10.57;;;2.20;;
52025;SDS011;38041;40.058;18.328;2022-08-19T04:04:15;11.38;;;1.95;;
52025;SDS011;38041;40.058;18.328;2022-08-19T04:06:42;18.70;;;2.97;;
52025;SDS011;38041;40.058;18.328;2022-08-19T04:09:10;12.23;;;2.70;;
52025;SDS011;38041;40.058;18.328;2022-08-19T04:11:50;14.23;;;2.40;;
52025;SDS011;38041;40.058;18.328;2022-08-19T04:14:22;15.32;;;4.32;;
52025;SDS011;38041;40.058;18.328;2022-08-19T04:16:51;9.20;;;3.15;;
52025;SDS011;38041;40.058;18.328;2022-08-19T04:19:19;14.38;;;2.80;;
52025;SDS011;38041;40.058;18.328;2022-08-19T04:21:48;10.52;;;3.33;;
52025;SDS011;38041;40.058;18.328;2022-08-19T04:24:16;16.90;;;3.55;;
52025;SDS011;38041;40.058;18.328;2022-08-19T04:26:44;17.33;;;3.85;;
52025;SDS011;38041;40.058;18.328;2022-08-19T04:29:13;15.65;;;4.43;;
52025;SDS011;38041;40.058;18.328;2022-08-19T04:31:42;19.90;;;4.25;;
52025;SDS011;38041;40.058;18.328;2022-08-19T04:34:11;17.38;;;3.20;;
52025;SDS011;38041;40.058;18.328;2022-08-19T04:36:40;7.97;;;2.97;;
52025;SDS011;38041;40.058;18.328;2022-08-19T04:39:09;11.27;;;2.75;;
52025;SDS011;38041;40.058;18.328;2022-08-19T04:41:37;16.58;;;3.55;;
52025;SDS011;38041;40.058;18.328;2022-08-19T04:44:24;7.82;;;2.30;;
52025;SDS011;38041;40.058;18.328;2022-08-19T04:46:52;16.40;;;3.38;;
52025;SDS011;38041;40.058;18.328;2022-08-19T04:49:21;13.43;;;4.15;;
52025;SDS011;38041;40.058;18.328;2022-08-19T04:51:49;14.85;;;3.13;;
52025;SDS011;38041;40.058;18.328;2022-08-19T04:54:19;10.43;;;2.95;;
52025;SDS011;38041;40.058;18.328;2022-08-19T04:56:49;9.68;;;3.75;;
52025;SDS011;38041;40.058;18.328;2022-08-19T04:59:17;11.60;;;2.85;;
52025;SDS011;38041;40.058;18.328;2022-08-19T05:01:47;9.30;;;2.80;;
52025;SDS011;38041;40.058;18.328;2022-08-19T05:04:17;11.77;;;3.80;;
52025;SDS011;38041;40.058;18.328;2022-08-19T05:06:48;6.07;;;3.65;;
52025;SDS011;38041;40.058;18.328;2022-08-19T05:09:17;12.32;;;3.75;;
52025;SDS011;38041;40.058;18.328;2022-08-19T05:11:44;12.82;;;4.90;;
52025;SDS011;38041;40.058;18.328;2022-08-19T05:14:12;11.55;;;4.05;;
52025;SDS011;38041;40.058;18.328;2022-08-19T05:16:40;15.85;;;4.10;;
52025;SDS011;38041;40.058;18.328;2022-08-19T05:19:08;10.82;;;4.22;;
52025;SDS011;38041;40.058;18.328;2022-08-19T05:21:54;15.93;;;6.03;;
52025;SDS011;38041;40.058;18.328;2022-08-19T05:24:41;15.18;;;5.75;;
52025;SDS011;38041;40.058;18.328;2022-08-19T05:27:16;16.67;;;4.43;;
52025;SDS011;38041;40.058;18.328;2022-08-19T05:29:44;21.30;;;6.63;;
52025;SDS011;38041;40.058;18.328;2022-08-19T05:32:12;17.08;;;5.50;;
52025;SDS011;38041;40.058;18.328;2022-08-19T05:34:40;33.47;;;6.70;;
52025;SDS011;38041;40.058;18.328;2022-08-19T05:37:07;12.88;;;5.07;;
52025;SDS011;38041;40.058;18.328;2022-08-19T05:39:36;17.23;;;5.68;;
52025;SDS011;38041;40.058;18.328;2022-08-19T05:42:05;19.33;;;4.70;;
52025;SDS011;38041;40.058;18.328;2022-08-19T05:44:34;23.92;;;8.70;;
52025;SDS011;38041;40.058;18.328;2022-08-19T05:47:04;24.38;;;7.82;;
52025;SDS011;38041;40.058;18.328;2022-08-19T05:49:32;14.00;;;5.93;;
52025;SDS011;38041;40.058;18.328;2022-08-19T05:52:02;16.30;;;3.92;;
52025;SDS011;38041;40.058;18.328;2022-08-19T05:54:31;17.15;;;5.57;;
52025;SDS011;38041;40.058;18.328;2022-08-19T05:56:59;8.88;;;3.50;;
52025;SDS011;38041;40.058;18.328;2022-08-19T05:59:28;17.55;;;6.57;;
52025;SDS011;38041;40.058;18.328;2022-08-19T06:01:55;10.35;;;3.90;;
52025;SDS011;38041;40.058;18.328;2022-08-19T06:04:23;13.75;;;2.80;;
52025;SDS011;38041;40.058;18.328;2022-08-19T06:06:52;19.35;;;6.35;;
52025;SDS011;38041;40.058;18.328;2022-08-19T06:09:20;17.88;;;8.85;;
52025;SDS011;38041;40.058;18.328;2022-08-19T06:11:52;17.20;;;6.93;;
52025;SDS011;38041;40.058;18.328;2022-08-19T06:14:23;12.27;;;6.25;;
52025;SDS011;38041;40.058;18.328;2022-08-19T06:16:51;27.58;;;13.38;;
52025;SDS011;38041;40.058;18.328;2022-08-19T06:19:20;31.35;;;8.65;;
52025;SDS011;38041;40.058;18.328;2022-08-19T06:21:49;21.40;;;8.45;;
52025;SDS011;38041;40.058;18.328;2022-08-19T06:24:19;28.92;;;11.45;;
52025;SDS011;38041;40.058;18.328;2022-08-19T06:26:47;17.80;;;6.47;;
52025;SDS011;38041;40.058;18.328;2022-08-19T06:29:16;21.70;;;7.20;;
52025;SDS011;38041;40.058;18.328;2022-08-19T06:31:45;22.08;;;5.82;;
52025;SDS011;38041;40.058;18.328;2022-08-19T06:34:13;22.52;;;5.45;;
52025;SDS011;38041;40.058;18.328;2022-08-19T06:36:42;24.15;;;9.27;;
52025;SDS011;38041;40.058;18.328;2022-08-19T06:39:12;22.58;;;9.57;;
52025;SDS011;38041;40.058;18.328;2022-08-19T06:41:41;22.38;;;8.57;;
52025;SDS011;38041;40.058;18.328;2022-08-19T06:44:16;24.88;;;8.88;;
52025;SDS011;38041;40.058;18.328;2022-08-19T06:46:44;24.30;;;5.80;;
52025;SDS011;38041;40.058;18.328;2022-08-19T06:49:12;21.58;;;7.00;;
52025;SDS011;38041;40.058;18.328;2022-08-19T06:51:49;29.17;;;10.25;;
52025;SDS011;38041;40.058;18.328;2022-08-19T06:54:17;20.70;;;6.68;;
52025;SDS011;38041;40.058;18.328;2022-08-19T06:56:46;26.23;;;12.93;;
52025;SDS011;38041;40.058;18.328;2022-08-19T06:59:20;24.92;;;12.07;;
52025;SDS011;38041;40.058;18.328;2022-08-19T07:01:49;18.60;;;6.85;;
52025;SDS011;38041;40.058;18.328;2022-08-19T07:04:21;27.73;;;10.25;;
52025;SDS011;38041;40.058;18.328;2022-08-19T07:06:50;35.00;;;13.85;;
52025;SDS011;38041;40.058;18.328;2022-08-19T07:09:18;28.15;;;9.52;;
52025;SDS011;38041;40.058;18.328;2022-08-19T07:11:46;22.17;;;7.22;;
52025;SDS011;38041;40.058;18.328;2022-08-19T07:14:16;25.90;;;8.55;;
52025;SDS011;38041;40.058;18.328;2022-08-19T07:16:45;18.80;;;6.20;;
52025;SDS011;38041;40.058;18.328;2022-08-19T07:19:13;17.85;;;5.22;;
52025;SDS011;38041;40.058;18.328;2022-08-19T07:21:41;25.05;;;5.80;;
52025;SDS011;38041;40.058;18.328;2022-08-19T07:24:09;29.92;;;11.77;;
52025;SDS011;38041;40.058;18.328;2022-08-19T07:26:39;20.45;;;7.82;;
52025;SDS011;38041;40.058;18.328;2022-08-19T07:29:07;23.95;;;5.45;;
52025;SDS011;38041;40.058;18.328;2022-08-19T07:31:35;12.00;;;4.18;;
52025;SDS011;38041;40.058;18.328;2022-08-19T07:34:08;13.52;;;4.18;;
52025;SDS011;38041;40.058;18.328;2022-08-19T07:36:38;26.67;;;5.17;;
52025;SDS011;38041;40.058;18.328;2022-08-19T07:39:08;11.20;;;2.10;;
52025;SDS011;38041;40.058;18.328;2022-08-19T07:41:36;24.33;;;10.90;;
52025;SDS011;38041;40.058;18.328;2022-08-19T07:44:05;24.40;;;3.70;;
52025;SDS011;38041;40.058;18.328;2022-08-19T07:46:34;24.60;;;3.88;;
52025;SDS011;38041;40.058;18.328;2022-08-19T07:49:04;18.08;;;3.95;;
52025;SDS011;38041;40.058;18.328;2022-08-19T07:51:32;18.50;;;2.97;;
52025;SDS011;38041;40.058;18.328;2022-08-19T07:54:00;24.70;;;2.72;;
52025;SDS011;38041;40.058;18.328;2022-08-19T07:56:27;21.75;;;2.65;;
52025;SDS011;38041;40.058;18.328;2022-08-19T07:58:55;16.42;;;2.58;;
52025;SDS011;38041;40.058;18.328;2022-08-19T08:01:24;18.50;;;4.00;;
52025;SDS011;38041;40.058;18.328;2022-08-19T08:03:53;23.63;;;7.38;;
52025;SDS011;38041;40.058;18.328;2022-08-19T08:06:40;18.80;;;3.90;;
52025;SDS011;38041;40.058;18.328;2022-08-19T08:09:31;27.35;;;3.20;;
52025;SDS011;38041;40.058;18.328;2022-08-19T08:12:05;16.17;;;2.03;;
52025;SDS011;38041;40.058;18.328;2022-08-19T08:14:45;19.92;;;2.65;;
52025;SDS011;38041;40.058;18.328;2022-08-19T08:17:14;16.55;;;1.98;;
52025;SDS011;38041;40.058;18.328;2022-08-19T08:19:44;20.80;;;3.17;;
52025;SDS011;38041;40.058;18.328;2022-08-19T08:22:14;20.20;;;3.22;;
52025;SDS011;38041;40.058;18.328;2022-08-19T08:25:03;23.33;;;3.20;;
52025;SDS011;38041;40.058;18.328;2022-08-19T08:27:31;20.23;;;1.80;;
52025;SDS011;38041;40.058;18.328;2022-08-19T08:29:59;23.35;;;2.53;;
52025;SDS011;38041;40.058;18.328;2022-08-19T08:32:26;16.85;;;1.58;;
52025;SDS011;38041;40.058;18.328;2022-08-19T08:34:54;18.85;;;2.95;;
52025;SDS011;38041;40.058;18.328;2022-08-19T08:37:22;25.95;;;2.75;;
52025;SDS011;38041;40.058;18.328;2022-08-19T08:39:50;23.83;;;2.70;;
52025;SDS011;38041;40.058;18.328;2022-08-19T08:42:22;16.45;;;2.78;;
52025;SDS011;38041;40.058;18.328;2022-08-19T08:45:00;25.23;;;3.50;;
52025;SDS011;38041;40.058;18.328;2022-08-19T08:47:30;23.20;;;1.77;;
52025;SDS011;38041;40.058;18.328;2022-08-19T08:50:01;24.27;;;3.38;;
52025;SDS011;38041;40.058;18.328;2022-08-19T08:52:31;19.42;;;2.08;;
52025;SDS011;38041;40.058;18.328;2022-08-19T08:55:08;24.35;;;2.55;;
52025;SDS011;38041;40.058;18.328;2022-08-19T08:57:49;13.38;;;2.38;;
52025;SDS011;38041;40.058;18.328;2022-08-19T09:00:23;20.42;;;3.50;;
52025;SDS011;38041;40.058;18.328;2022-08-19T09:02:52;25.15;;;3.22;;
52025;SDS011;38041;40.058;18.328;2022-08-19T09:05:20;22.45;;;3.60;;
52025;SDS011;38041;40.058;18.328;2022-08-19T09:10:28;17.83;;;3.25;;
52025;SDS011;38041;40.058;18.328;2022-08-19T09:13:13;24.10;;;4.45;;
52025;SDS011;38041;40.058;18.328;2022-08-19T09:15:46;12.98;;;2.65;;
52025;SDS011;38041;40.058;18.328;2022-08-19T09:18:15;24.83;;;3.70;;
52025;SDS011;38041;40.058;18.328;2022-08-19T09:20:43;19.40;;;2.42;;
52025;SDS011;38041;40.058;18.328;2022-08-19T09:23:11;27.23;;;3.35;;
52025;SDS011;38041;40.058;18.328;2022-08-19T09:25:39;22.35;;;3.30;;
52025;SDS011;38041;40.058;18.328;2022-08-19T09:28:06;16.13;;;3.50;;
52025;SDS011;38041;40.058;18.328;2022-08-19T09:30:39;20.27;;;3.83;;
52025;SDS011;38041;40.058;18.328;2022-08-19T09:33:07;13.02;;;2.83;;
52025;SDS011;38041;40.058;18.328;2022-08-19T09:35:35;19.77;;;4.75;;
52025;SDS011;38041;40.058;18.328;2022-08-19T09:38:03;23.88;;;4.93;;
52025;SDS011;38041;40.058;18.328;2022-08-19T09:40:31;20.02;;;6.25;;
52025;SDS011;38041;40.058;18.328;2022-08-19T09:42:59;24.48;;;3.80;;
52025;SDS011;38041;40.058;18.328;2022-08-19T09:45:29;16.90;;;4.97;;
52025;SDS011;38041;40.058;18.328;2022-08-19T09:47:56;22.55;;;4.53;;
52025;SDS011;38041;40.058;18.328;2022-08-19T09:50:24;26.88;;;7.00;;
52025;SDS011;38041;40.058;18.328;2022-08-19T09:52:52;22.02;;;7.65;;
52025;SDS011;38041;40.058;18.328;2022-08-19T09:55:20;19.45;;;6.55;;
52025;SDS011;38041;40.058;18.328;2022-08-19T09:57:48;22.17;;;8.77;;
52025;SDS011;38041;40.058;18.328;2022-08-19T10:00:15;27.67;;;10.07;;
52025;SDS011;38041;40.058;18.328;2022-08-19T10:02:43;30.25;;;11.57;;
52025;SDS011;38041;40.058;18.328;2022-08-19T10:05:11;29.98;;;15.60;;
52025;SDS011;38041;40.058;18.328;2022-08-19T10:07:57;32.30;;;14.23;;
52025;SDS011;38041;40.058;18.328;2022-08-19T10:10:27;31.65;;;20.30;;
52025;SDS011;38041;40.058;18.328;2022-08-19T10:12:55;20.25;;;9.55;;
52025;SDS011;38041;40.058;18.328;2022-08-19T10:15:22;45.30;;;31.80;;
52025;SDS011;38041;40.058;18.328;2022-08-19T10:17:50;20.67;;;9.48;;
52025;SDS011;38041;40.058;18.328;2022-08-19T10:20:18;29.00;;;12.55;;
52025;SDS011;38041;40.058;18.328;2022-08-19T10:22:46;31.80;;;16.95;;
52025;SDS011;38041;40.058;18.328;2022-08-19T10:25:13;23.38;;;9.15;;
52025;SDS011;38041;40.058;18.328;2022-08-19T10:27:43;27.08;;;5.93;;
52025;SDS011;38041;40.058;18.328;2022-08-19T10:30:12;31.77;;;13.73;;
52025;SDS011;38041;40.058;18.328;2022-08-19T10:32:40;29.75;;;8.90;;
52025;SDS011;38041;40.058;18.328;2022-08-19T10:35:07;25.60;;;7.40;;
52025;SDS011;38041;40.058;18.328;2022-08-19T10:37:36;30.98;;;14.30;;
52025;SDS011;38041;40.058;18.328;2022-08-19T10:40:05;20.50;;;6.20;;
52025;SDS011;38041;40.058;18.328;2022-08-19T10:42:34;20.65;;;5.28;;
52025;SDS011;38041;40.058;18.328;2022-08-19T10:45:03;26.30;;;11.13;;
52025;SDS011;38041;40.058;18.328;2022-08-19T10:47:32;28.02;;;9.52;;
52025;SDS011;38041;40.058;18.328;2022-08-19T10:50:00;25.88;;;6.95;;
52025;SDS011;38041;40.058;18.328;2022-08-19T10:52:48;33.00;;;18.45;;
52025;SDS011;38041;40.058;18.328;2022-08-19T10:55:17;24.27;;;12.20;;
52025;SDS011;38041;40.058;18.328;2022-08-19T10:58:04;28.60;;;17.65;;
52025;SDS011;38041;40.058;18.328;2022-08-19T11:00:36;36.10;;;21.30;;
52025;SDS011;38041;40.058;18.328;2022-08-19T11:03:04;55.08;;;41.78;;
52025;SDS011;38041;40.058;18.328;2022-08-19T11:05:32;40.20;;;18.00;;
52025;SDS011;38041;40.058;18.328;2022-08-19T11:08:00;46.58;;;21.77;;
52025;SDS011;38041;40.058;18.328;2022-08-19T11:10:28;33.20;;;11.55;;
52025;SDS011;38041;40.058;18.328;2022-08-19T11:12:55;38.70;;;14.60;;
52025;SDS011;38041;40.058;18.328;2022-08-19T11:15:23;36.80;;;17.33;;
52025;SDS011;38041;40.058;18.328;2022-08-19T11:17:51;60.05;;;39.63;;
52025;SDS011;38041;40.058;18.328;2022-08-19T11:20:20;40.45;;;22.85;;
52025;SDS011;38041;40.058;18.328;2022-08-19T11:22:51;54.35;;;40.83;;
52025;SDS011;38041;40.058;18.328;2022-08-19T11:25:19;40.90;;;23.35;;
52025;SDS011;38041;40.058;18.328;2022-08-19T11:27:47;37.25;;;18.73;;
52025;SDS011;38041;40.058;18.328;2022-08-19T11:30:17;20.92;;;6.18;;
52025;SDS011;38041;40.058;18.328;2022-08-19T11:32:45;25.77;;;7.10;;
52025;SDS011;38041;40.058;18.328;2022-08-19T11:35:15;26.73;;;6.80;;
52025;SDS011;38041;40.058;18.328;2022-08-19T11:37:46;28.05;;;13.02;;
52025;SDS011;38041;40.058;18.328;2022-08-19T11:40:13;27.15;;;3.85;;
52025;SDS011;38041;40.058;18.328;2022-08-19T11:42:41;34.88;;;15.55;;
52025;SDS011;38041;40.058;18.328;2022-08-19T11:45:22;34.97;;;17.88;;
52025;SDS011;38041;40.058;18.328;2022-08-19T11:47:50;24.33;;;5.88;;
52025;SDS011;38041;40.058;18.328;2022-08-19T11:50:18;28.77;;;7.65;;
52025;SDS011;38041;40.058;18.328;2022-08-19T11:52:46;26.45;;;11.15;;
52025;SDS011;38041;40.058;18.328;2022-08-19T11:55:16;20.80;;;5.80;;
52025;SDS011;38041;40.058;18.328;2022-08-19T11:57:43;25.50;;;8.85;;
52025;SDS011;38041;40.058;18.328;2022-08-19T12:00:12;14.15;;;3.38;;
52025;SDS011;38041;40.058;18.328;2022-08-19T12:02:40;22.88;;;3.50;;
52025;SDS011;38041;40.058;18.328;2022-08-19T12:05:09;20.15;;;3.50;;
52025;SDS011;38041;40.058;18.328;2022-08-19T12:07:38;25.92;;;4.32;;
52025;SDS011;38041;40.058;18.328;2022-08-19T12:10:07;26.27;;;5.57;;
52025;SDS011;38041;40.058;18.328;2022-08-19T12:12:34;22.48;;;5.20;;
52025;SDS011;38041;40.058;18.328;2022-08-19T12:15:04;30.67;;;6.20;;
52025;SDS011;38041;40.058;18.328;2022-08-19T12:17:32;30.52;;;7.75;;
52025;SDS011;38041;40.058;18.328;2022-08-19T12:20:00;26.08;;;13.45;;
52025;SDS011;38041;40.058;18.328;2022-08-19T12:22:28;35.75;;;9.98;;
52025;SDS011;38041;40.058;18.328;2022-08-19T12:24:55;33.15;;;14.80;;
52025;SDS011;38041;40.058;18.328;2022-08-19T12:27:23;35.88;;;25.77;;
52025;SDS011;38041;40.058;18.328;2022-08-19T12:29:51;33.92;;;14.43;;
52025;SDS011;38041;40.058;18.328;2022-08-19T12:32:19;29.67;;;17.08;;
52025;SDS011;38041;40.058;18.328;2022-08-19T12:34:47;43.83;;;17.52;;
52025;SDS011;38041;40.058;18.328;2022-08-19T12:37:15;33.85;;;11.25;;
52025;SDS011;38041;40.058;18.328;2022-08-19T12:39:43;32.60;;;12.40;;
52025;SDS011;38041;40.058;18.328;2022-08-19T12:42:12;26.13;;;11.05;;
52025;SDS011;38041;40.058;18.328;2022-08-19T12:44:41;55.65;;;29.52;;
52025;SDS011;38041;40.058;18.328;2022-08-19T12:47:09;38.88;;;18.73;;
52025;SDS011;38041;40.058;18.328;2022-08-19T12:49:38;43.03;;;20.88;;
52025;SDS011;38041;40.058;18.328;2022-08-19T12:52:07;33.05;;;11.93;;
52025;SDS011;38041;40.058;18.328;2022-08-19T12:54:35;48.75;;;19.30;;
52025;SDS011;38041;40.058;18.328;2022-08-19T12:57:06;33.50;;;12.95;;
52025;SDS011;38041;40.058;18.328;2022-08-19T12:59:35;36.45;;;15.45;;
52025;SDS011;38041;40.058;18.328;2022-08-19T13:02:03;45.80;;;24.05;;
52025;SDS011;38041;40.058;18.328;2022-08-19T13:04:34;49.40;;;30.08;;
52025;SDS011;38041;40.058;18.328;2022-08-19T13:07:04;37.97;;;26.23;;
52025;SDS011;38041;40.058;18.328;2022-08-19T13:09:32;46.35;;;32.30;;
52025;SDS011;38041;40.058;18.328;2022-08-19T13:11:59;54.67;;;39.20;;
52025;SDS011;38041;40.058;18.328;2022-08-19T13:14:29;31.77;;;19.50;;
52025;SDS011;38041;40.058;18.328;2022-08-19T13:16:58;64.00;;;43.35;;
52025;SDS011;38041;40.058;18.328;2022-08-19T13:19:25;35.33;;;16.02;;
52025;SDS011;38041;40.058;18.328;2022-08-19T13:21:53;35.83;;;12.25;;
52025;SDS011;38041;40.058;18.328;2022-08-19T13:24:22;49.35;;;15.88;;
52025;SDS011;38041;40.058;18.328;2022-08-19T13:26:49;28.02;;;9.88;;
52025;SDS011;38041;40.058;18.328;2022-08-19T13:29:17;28.20;;;14.77;;
52025;SDS011;38041;40.058;18.328;2022-08-19T13:32:03;30.25;;;15.55;;
52025;SDS011;38041;40.058;18.328;2022-08-19T13:34:49;54.15;;;35.03;;
52025;SDS011;38041;40.058;18.328;2022-08-19T13:37:17;42.53;;;23.75;;
52025;SDS011;38041;40.058;18.328;2022-08-19T13:40:05;38.78;;;25.08;;
52025;SDS011;38041;40.058;18.328;2022-08-19T13:42:33;33.55;;;12.77;;
52025;SDS011;38041;40.058;18.328;2022-08-19T13:45:01;21.90;;;10.90;;
52025;SDS011;38041;40.058;18.328;2022-08-19T13:47:28;23.42;;;11.30;;
52025;SDS011;38041;40.058;18.328;2022-08-19T13:49:56;32.95;;;18.02;;
52025;SDS011;38041;40.058;18.328;2022-08-19T13:52:24;26.60;;;9.93;;
52025;SDS011;38041;40.058;18.328;2022-08-19T13:54:51;22.98;;;9.40;;
52025;SDS011;38041;40.058;18.328;2022-08-19T13:57:20;20.55;;;7.00;;
52025;SDS011;38041;40.058;18.328;2022-08-19T13:59:48;17.33;;;5.57;;
52025;SDS011;38041;40.058;18.328;2022-08-19T14:02:15;20.85;;;4.60;;
52025;SDS011;38041;40.058;18.328;2022-08-19T14:04:43;21.67;;;7.13;;
52025;SDS011;38041;40.058;18.328;2022-08-19T14:07:11;20.95;;;6.75;;
52025;SDS011;38041;40.058;18.328;2022-08-19T14:09:39;22.50;;;5.55;;
52025;SDS011;38041;40.058;18.328;2022-08-19T14:12:07;21.67;;;5.60;;
52025;SDS011;38041;40.058;18.328;2022-08-19T14:14:36;22.90;;;3.75;;
52025;SDS011;38041;40.058;18.328;2022-08-19T14:17:07;25.40;;;5.32;;
52025;SDS011;38041;40.058;18.328;2022-08-19T14:19:35;18.67;;;5.07;;
52025;SDS011;38041;40.058;18.328;2022-08-19T14:22:03;21.02;;;3.53;;
52025;SDS011;38041;40.058;18.328;2022-08-19T14:24:31;14.75;;;3.97;;
52025;SDS011;38041;40.058;18.328;2022-08-19T14:26:59;24.27;;;4.93;;
52025;SDS011;38041;40.058;18.328;2022-08-19T14:29:27;16.77;;;4.07;;
52025;SDS011;38041;40.058;18.328;2022-08-19T14:31:55;15.50;;;6.15;;
52025;SDS011;38041;40.058;18.328;2022-08-19T14:34:25;19.13;;;3.85;;
52025;SDS011;38041;40.058;18.328;2022-08-19T14:36:53;15.00;;;4.15;;
52025;SDS011;38041;40.058;18.328;2022-08-19T14:39:21;18.02;;;4.22;;